^^
Saratoga-Weather Station Historical Data
Daily Summary for September 19, 2021 Units:  Both    English   Metric
Daily Weekly Monthly Yearly Custom
  High: Low: Average:
Temperature: 44.1 °F /  6.7 °C 43.3 °F /  6.3 °C 43.7 °F /  6.5 °C
Dew Point: 42.8 °F /  6 °C 41.7 °F /  5.4 °C 42.1 °F /  5.6 °C
Humidity: 95% 93% 94%
Wind Speed: 8.1mph /  13km/h - 1mph /  1.6km/h
Wind Gust: 8mph /  12.9km/h - -
Wind- - West
Pressure: 30.5 in /  1032.5 hPa 30.5 in /  1031.2 hPa -
Precipitation: 0 in /  0.0 mm    
Historical Graphs
 
 
Tabular Data for September 19, 2021
Time Temperature Dew Point Pressure Wind Wind Speed Wind Gust Humidity Rainfall Rate (Hourly) solar
00:03 43.3 °F /  6.3 °C 41.7 °F /  5.4 °C 30.5in /  1032.2hPa WNW 4mph /  6.4km/h 4mph /  6.4km/h 94% 0in /  0.0mm 0 W/m2
00:08 43.3 °F /  6.3 °C 41.7 °F /  5.4 °C 30.5in /  1031.8hPa WNW 2mph /  3.2km/h 4mph /  6.4km/h 94% 0in /  0.0mm 0 W/m2
00:13 43.3 °F /  6.3 °C 41.7 °F /  5.4 °C 30.5in /  1031.8hPa West 2mph /  3.2km/h 4mph /  6.4km/h 94% 0in /  0.0mm 0 W/m2
00:18 43.3 °F /  6.3 °C 41.7 °F /  5.4 °C 30.5in /  1031.8hPa Calm   2mph /  3.2km/h 94% 0in /  0.0mm 0 W/m2
00:23 43.3 °F /  6.3 °C 41.7 °F /  5.4 °C 30.5in /  1031.8hPa WNW 2mph /  3.2km/h 2mph /  3.2km/h 94% 0in /  0.0mm 0 W/m2
00:28 43.3 °F /  6.3 °C 41.7 °F /  5.4 °C 30.5in /  1031.8hPa NW 0.9mph /  1.4km/h 3mph /  4.8km/h 94% 0in /  0.0mm 0 W/m2
00:33 43.3 °F /  6.3 °C 41.7 °F /  5.4 °C 30.5in /  1031.8hPa Calm   1mph /  1.6km/h 94% 0in /  0.0mm 0 W/m2
00:38 43.3 °F /  6.3 °C 41.7 °F /  5.4 °C 30.5in /  1031.8hPa WSW 0.9mph /  1.4km/h 3mph /  4.8km/h 94% 0in /  0.0mm 0 W/m2
00:43 43.3 °F /  6.3 °C 41.7 °F /  5.4 °C 30.5in /  1031.8hPa NW 0.9mph /  1.4km/h 3mph /  4.8km/h 94% 0in /  0.0mm 0 W/m2
00:48 43.3 °F /  6.3 °C 41.7 °F /  5.4 °C 30.5in /  1031.8hPa WSW 0.9mph /  1.4km/h 5mph /  8km/h 94% 0in /  0.0mm 0 W/m2
00:53 43.3 °F /  6.3 °C 41.7 °F /  5.4 °C 30.5in /  1031.8hPa WNW 2.9mph /  4.7km/h 4mph /  6.4km/h 94% 0in /  0.0mm 0 W/m2
00:58 43.3 °F /  6.3 °C 41.7 °F /  5.4 °C 30.5in /  1031.8hPa Calm   4mph /  6.4km/h 94% 0in /  0.0mm 0 W/m2
01:03 43.3 °F /  6.3 °C 41.7 °F /  5.4 °C 30.5in /  1031.8hPa WNW 0.9mph /  1.4km/h 4mph /  6.4km/h 94% 0in /  0.0mm 0 W/m2
01:08 43.3 °F /  6.3 °C 41.7 °F /  5.4 °C 30.5in /  1031.8hPa WNW 0.9mph /  1.4km/h 3mph /  4.8km/h 94% 0in /  0.0mm 0 W/m2
01:13 43.3 °F /  6.3 °C 41.7 °F /  5.4 °C 30.5in /  1031.5hPa Calm   5mph /  8km/h 94% 0in /  0.0mm 0 W/m2
01:18 43.3 °F /  6.3 °C 41.7 °F /  5.4 °C 30.5in /  1031.5hPa WNW 0.9mph /  1.4km/h 3mph /  4.8km/h 94% 0in /  0.0mm 0 W/m2
01:23 43.3 °F /  6.3 °C 41.7 °F /  5.4 °C 30.5in /  1031.5hPa West 0.9mph /  1.4km/h 3mph /  4.8km/h 94% 0in /  0.0mm 0 W/m2
01:28 43.5 °F /  6.4 °C 41.9 °F /  5.5 °C 30.5in /  1031.5hPa NW 0.9mph /  1.4km/h 2mph /  3.2km/h 94% 0in /  0.0mm 0 W/m2
01:33 43.5 °F /  6.4 °C 41.9 °F /  5.5 °C 30.5in /  1031.8hPa Calm   2mph /  3.2km/h 94% 0in /  0.0mm 0 W/m2
01:38 43.5 °F /  6.4 °C 41.9 °F /  5.5 °C 30.5in /  1031.8hPa Calm     94% 0in /  0.0mm 0 W/m2
01:43 43.5 °F /  6.4 °C 41.9 °F /  5.5 °C 30.5in /  1031.8hPa Calm   2mph /  3.2km/h 94% 0in /  0.0mm 0 W/m2
01:48 43.5 °F /  6.4 °C 41.9 °F /  5.5 °C 30.5in /  1031.8hPa NNE 2mph /  3.2km/h 3mph /  4.8km/h 94% 0in /  0.0mm 0 W/m2
01:53 43.5 °F /  6.4 °C 41.9 °F /  5.5 °C 30.5in /  1031.5hPa West 2mph /  3.2km/h 2mph /  3.2km/h 94% 0in /  0.0mm 0 W/m2
01:58 43.5 °F /  6.4 °C 41.9 °F /  5.5 °C 30.5in /  1031.5hPa West 0.9mph /  1.4km/h 6mph /  9.7km/h 94% 0in /  0.0mm 0 W/m2
02:03 43.5 °F /  6.4 °C 41.9 °F /  5.5 °C 30.5in /  1031.5hPa West 8.1mph /  13km/h 8mph /  12.9km/h 94% 0in /  0.0mm 0 W/m2
02:08 43.7 °F /  6.5 °C 42.1 °F /  5.6 °C 30.5in /  1031.5hPa WSW 2.9mph /  4.7km/h 7mph /  11.3km/h 94% 0in /  0.0mm 0 W/m2
02:13 43.7 °F /  6.5 °C 41.7 °F /  5.4 °C 30.5in /  1031.5hPa WNW 0.9mph /  1.4km/h 4mph /  6.4km/h 93% 0in /  0.0mm 0 W/m2
02:18 43.9 °F /  6.6 °C 41.9 °F /  5.5 °C 30.5in /  1031.5hPa NW 2mph /  3.2km/h 7mph /  11.3km/h 93% 0in /  0.0mm 0 W/m2
02:23 43.9 °F /  6.6 °C 41.9 °F /  5.5 °C 30.5in /  1031.5hPa WNW 2mph /  3.2km/h 3mph /  4.8km/h 93% 0in /  0.0mm 0 W/m2
02:28 43.9 °F /  6.6 °C 41.9 °F /  5.5 °C 30.5in /  1031.5hPa West 2mph /  3.2km/h 3mph /  4.8km/h 93% 0in /  0.0mm 0 W/m2
02:33 43.9 °F /  6.6 °C 41.9 °F /  5.5 °C 30.5in /  1031.5hPa WNW 2.9mph /  4.7km/h 4mph /  6.4km/h 93% 0in /  0.0mm 0 W/m2
02:38 43.9 °F /  6.6 °C 41.9 °F /  5.5 °C 30.5in /  1031.5hPa SSW 2.9mph /  4.7km/h 7mph /  11.3km/h 93% 0in /  0.0mm 0 W/m2
02:43 43.9 °F /  6.6 °C 41.9 °F /  5.5 °C 30.5in /  1031.5hPa SW 0.9mph /  1.4km/h 6mph /  9.7km/h 93% 0in /  0.0mm 0 W/m2
02:48 43.9 °F /  6.6 °C 41.9 °F /  5.5 °C 30.5in /  1031.5hPa NW 2mph /  3.2km/h 4mph /  6.4km/h 93% 0in /  0.0mm 0 W/m2
02:53 43.7 °F /  6.5 °C 41.7 °F /  5.4 °C 30.5in /  1031.5hPa WNW 2mph /  3.2km/h 4mph /  6.4km/h 93% 0in /  0.0mm 0 W/m2
02:58 43.7 °F /  6.5 °C 41.7 °F /  5.4 °C 30.5in /  1031.5hPa WSW 2.9mph /  4.7km/h 4mph /  6.4km/h 93% 0in /  0.0mm 0 W/m2
03:03 43.7 °F /  6.5 °C 41.7 °F /  5.4 °C 30.5in /  1031.5hPa SSW 0.9mph /  1.4km/h 4mph /  6.4km/h 93% 0in /  0.0mm 0 W/m2
03:08 43.5 °F /  6.4 °C 41.7 °F /  5.4 °C 30.5in /  1031.5hPa SW 6mph /  9.7km/h 7mph /  11.3km/h 93% 0in /  0.0mm 0 W/m2
03:13 43.7 °F /  6.5 °C 41.7 °F /  5.4 °C 30.5in /  1031.5hPa West 0.9mph /  1.4km/h 4mph /  6.4km/h 93% 0in /  0.0mm 0 W/m2
03:18 43.7 °F /  6.5 °C 41.7 °F /  5.4 °C 30.5in /  1031.5hPa WSW 0.9mph /  1.4km/h 2mph /  3.2km/h 93% 0in /  0.0mm 0 W/m2
03:23 43.7 °F /  6.5 °C 41.7 °F /  5.4 °C 30.5in /  1031.5hPa WSW 0.9mph /  1.4km/h 6mph /  9.7km/h 93% 0in /  0.0mm 0 W/m2
03:28 43.7 °F /  6.5 °C 41.7 °F /  5.4 °C 30.5in /  1031.5hPa NW 4.9mph /  7.9km/h 7mph /  11.3km/h 93% 0in /  0.0mm 0 W/m2
03:33 43.9 °F /  6.6 °C 41.9 °F /  5.5 °C 30.5in /  1031.2hPa WNW 0.9mph /  1.4km/h 4mph /  6.4km/h 93% 0in /  0.0mm 0 W/m2
03:38 43.9 °F /  6.6 °C 41.9 °F /  5.5 °C 30.5in /  1031.5hPa West 2.9mph /  4.7km/h 6mph /  9.7km/h 93% 0in /  0.0mm 0 W/m2
03:43 43.9 °F /  6.6 °C 41.9 °F /  5.5 °C 30.5in /  1031.5hPa West 0.9mph /  1.4km/h 6mph /  9.7km/h 93% 0in /  0.0mm 0 W/m2
03:48 43.9 °F /  6.6 °C 41.9 °F /  5.5 °C 30.5in /  1031.2hPa WNW 0.9mph /  1.4km/h 2mph /  3.2km/h 93% 0in /  0.0mm 0 W/m2
03:53 43.9 °F /  6.6 °C 41.9 °F /  5.5 °C 30.5in /  1031.5hPa Calm   2mph /  3.2km/h 93% 0in /  0.0mm 0 W/m2
03:58 43.9 °F /  6.6 °C 41.9 °F /  5.5 °C 30.5in /  1031.5hPa Calm   2mph /  3.2km/h 93% 0in /  0.0mm 0 W/m2
04:03 43.9 °F /  6.6 °C 41.9 °F /  5.5 °C 30.5in /  1031.5hPa WNW 0.9mph /  1.4km/h 2mph /  3.2km/h 93% 0in /  0.0mm 0 W/m2
04:08 43.9 °F /  6.6 °C 41.9 °F /  5.5 °C 30.5in /  1031.5hPa Calm   2mph /  3.2km/h 93% 0in /  0.0mm 0 W/m2
04:13 43.9 °F /  6.6 °C 41.9 °F /  5.5 °C 30.5in /  1031.2hPa West 0.9mph /  1.4km/h 3mph /  4.8km/h 93% 0in /  0.0mm 0 W/m2
04:18 43.9 °F /  6.6 °C 41.9 °F /  5.5 °C 30.5in /  1031.2hPa West 2.9mph /  4.7km/h 3mph /  4.8km/h 93% 0in /  0.0mm 0 W/m2
04:23 44.1 °F /  6.7 °C 42.1 °F /  5.6 °C 30.5in /  1031.2hPa West 2mph /  3.2km/h 3mph /  4.8km/h 93% 0in /  0.0mm 0 W/m2
04:28 44.1 °F /  6.7 °C 42.1 °F /  5.6 °C 30.5in /  1031.2hPa Calm   2mph /  3.2km/h 93% 0in /  0.0mm 0 W/m2
04:33 44.1 °F /  6.7 °C 42.1 °F /  5.6 °C 30.5in /  1031.5hPa Calm   2mph /  3.2km/h 93% 0in /  0.0mm 0 W/m2
04:38 44.1 °F /  6.7 °C 42.1 °F /  5.6 °C 30.5in /  1031.5hPa Calm     93% 0in /  0.0mm 0 W/m2
04:43 44.1 °F /  6.7 °C 42.1 °F /  5.6 °C 30.5in /  1031.5hPa NNW 0.9mph /  1.4km/h 2mph /  3.2km/h 93% 0in /  0.0mm 0 W/m2
04:48 44.1 °F /  6.7 °C 42.1 °F /  5.6 °C 30.5in /  1031.5hPa NNW 0.9mph /  1.4km/h 1mph /  1.6km/h 93% 0in /  0.0mm 0 W/m2
04:53 43.9 °F /  6.6 °C 41.9 °F /  5.5 °C 30.5in /  1031.5hPa Calm   2mph /  3.2km/h 93% 0in /  0.0mm 0 W/m2
04:58 43.9 °F /  6.6 °C 41.9 °F /  5.5 °C 30.5in /  1031.5hPa Calm   1mph /  1.6km/h 93% 0in /  0.0mm 0 W/m2
05:03 43.9 °F /  6.6 °C 41.9 °F /  5.5 °C 30.5in /  1031.5hPa Calm     93% 0in /  0.0mm 0 W/m2
05:08 43.9 °F /  6.6 °C 41.9 °F /  5.5 °C 30.5in /  1031.5hPa West 0.9mph /  1.4km/h 1mph /  1.6km/h 93% 0in /  0.0mm 0 W/m2
05:13 43.7 °F /  6.5 °C 42.1 °F /  5.6 °C 30.5in /  1031.8hPa Calm   2mph /  3.2km/h 94% 0in /  0.0mm 0 W/m2
05:18 43.7 °F /  6.5 °C 42.1 °F /  5.6 °C 30.5in /  1031.8hPa NW 2mph /  3.2km/h 2mph /  3.2km/h 94% 0in /  0.0mm 0 W/m2
05:23 43.5 °F /  6.4 °C 41.9 °F /  5.5 °C 30.5in /  1031.5hPa Calm   1mph /  1.6km/h 94% 0in /  0.0mm 0 W/m2
05:28 43.7 °F /  6.5 °C 42.1 °F /  5.6 °C 30.5in /  1031.5hPa Calm   1mph /  1.6km/h 94% 0in /  0.0mm 0 W/m2
05:33 43.5 °F /  6.4 °C 41.9 °F /  5.5 °C 30.5in /  1031.5hPa Calm   1mph /  1.6km/h 94% 0in /  0.0mm 0 W/m2
05:38 43.5 °F /  6.4 °C 41.9 °F /  5.5 °C 30.5in /  1031.5hPa Calm     94% 0in /  0.0mm 0 W/m2
05:44 43.5 °F /  6.4 °C 41.9 °F /  5.5 °C 30.5in /  1031.5hPa Calm     94% 0in /  0.0mm 0 W/m2
05:49 43.5 °F /  6.4 °C 41.9 °F /  5.5 °C 30.5in /  1031.5hPa Calm     94% 0in /  0.0mm 0 W/m2
05:54 43.5 °F /  6.4 °C 41.9 °F /  5.5 °C 30.5in /  1031.5hPa Calm     94% 0in /  0.0mm 0 W/m2
05:59 43.5 °F /  6.4 °C 41.9 °F /  5.5 °C 30.5in /  1031.5hPa Calm     94% 0in /  0.0mm 0 W/m2
06:04 43.5 °F /  6.4 °C 41.9 °F /  5.5 °C 30.5in /  1031.5hPa Calm   3mph /  4.8km/h 94% 0in /  0.0mm 0 W/m2
06:09 43.5 °F /  6.4 °C 41.9 °F /  5.5 °C 30.5in /  1031.5hPa Calm   1mph /  1.6km/h 94% 0in /  0.0mm 0 W/m2
06:14 43.5 °F /  6.4 °C 41.9 °F /  5.5 °C 30.5in /  1031.5hPa Calm     94% 0in /  0.0mm 0 W/m2
06:19 43.5 °F /  6.4 °C 41.9 °F /  5.5 °C 30.5in /  1031.5hPa NW 0.9mph /  1.4km/h 1mph /  1.6km/h 94% 0in /  0.0mm 0 W/m2
06:24 43.3 °F /  6.3 °C 41.7 °F /  5.4 °C 30.5in /  1031.5hPa Calm     94% 0in /  0.0mm 0 W/m2
06:29 43.5 °F /  6.4 °C 41.9 °F /  5.5 °C 30.5in /  1031.5hPa Calm   1mph /  1.6km/h 94% 0in /  0.0mm 0 W/m2
06:34 43.3 °F /  6.3 °C 42.1 °F /  5.6 °C 30.5in /  1031.5hPa Calm     95% 0in /  0.0mm 0 W/m2
06:39 43.3 °F /  6.3 °C 42.1 °F /  5.6 °C 30.5in /  1031.5hPa Calm   1mph /  1.6km/h 95% 0in /  0.0mm 0 W/m2
06:44 43.3 °F /  6.3 °C 42.1 °F /  5.6 °C 30.5in /  1031.5hPa Calm     95% 0in /  0.0mm 0 W/m2
06:49 43.3 °F /  6.3 °C 42.1 °F /  5.6 °C 30.5in /  1031.5hPa Calm     95% 0in /  0.0mm 0 W/m2
06:54 43.5 °F /  6.4 °C 42.3 °F /  5.7 °C 30.5in /  1031.5hPa NW 2mph /  3.2km/h 3mph /  4.8km/h 95% 0in /  0.0mm 0 W/m2
06:59 43.3 °F /  6.3 °C 42.1 °F /  5.6 °C 30.5in /  1031.5hPa Calm   1mph /  1.6km/h 95% 0in /  0.0mm 0 W/m2
07:04 43.5 °F /  6.4 °C 42.3 °F /  5.7 °C 30.5in /  1031.5hPa NW 0.9mph /  1.4km/h 3mph /  4.8km/h 95% 0in /  0.0mm 0 W/m2
07:09 43.3 °F /  6.3 °C 42.1 °F /  5.6 °C 30.5in /  1031.5hPa NNW 2mph /  3.2km/h 3mph /  4.8km/h 95% 0in /  0.0mm 0 W/m2
07:14 43.5 °F /  6.4 °C 42.3 °F /  5.7 °C 30.5in /  1031.5hPa Calm     95% 0in /  0.0mm 0 W/m2
07:19 43.5 °F /  6.4 °C 42.3 °F /  5.7 °C 30.5in /  1031.5hPa Calm     95% 0in /  0.0mm 0 W/m2
07:24 43.5 °F /  6.4 °C 42.3 °F /  5.7 °C 30.5in /  1031.8hPa Calm     95% 0in /  0.0mm 0 W/m2
07:29 43.5 °F /  6.4 °C 42.3 °F /  5.7 °C 30.5in /  1031.5hPa Calm   2mph /  3.2km/h 95% 0in /  0.0mm 0 W/m2
07:34 43.5 °F /  6.4 °C 42.3 °F /  5.7 °C 30.5in /  1031.8hPa Calm   2mph /  3.2km/h 95% 0in /  0.0mm 0 W/m2
07:39 43.5 °F /  6.4 °C 42.3 °F /  5.7 °C 30.5in /  1031.8hPa Calm   4mph /  6.4km/h 95% 0in /  0.0mm 0 W/m2
07:44 43.5 °F /  6.4 °C 42.3 °F /  5.7 °C 30.5in /  1031.8hPa NNE 0.9mph /  1.4km/h 2mph /  3.2km/h 95% 0in /  0.0mm 0 W/m2
07:49 43.5 °F /  6.4 °C 42.3 °F /  5.7 °C 30.5in /  1031.8hPa NNW 0.9mph /  1.4km/h 2mph /  3.2km/h 95% 0in /  0.0mm 0 W/m2
07:54 43.5 °F /  6.4 °C 42.3 °F /  5.7 °C 30.5in /  1031.8hPa Calm     95% 0in /  0.0mm 0 W/m2
07:59 43.5 °F /  6.4 °C 42.3 °F /  5.7 °C 30.5in /  1031.8hPa Calm     95% 0in /  0.0mm 0 W/m2
08:04 43.5 °F /  6.4 °C 42.3 °F /  5.7 °C 30.5in /  1031.8hPa Calm     95% 0in /  0.0mm 0 W/m2
08:09 43.5 °F /  6.4 °C 42.3 °F /  5.7 °C 30.5in /  1032.2hPa Calm     95% 0in /  0.0mm 0 W/m2
08:14 43.5 °F /  6.4 °C 42.3 °F /  5.7 °C 30.5in /  1032.2hPa Calm     95% 0in /  0.0mm 5 W/m2
08:19 43.5 °F /  6.4 °C 42.3 °F /  5.7 °C 30.5in /  1032.2hPa Calm     95% 0in /  0.0mm 7 W/m2
08:24 43.7 °F /  6.5 °C 42.4 °F /  5.8 °C 30.5in /  1031.8hPa Calm   3mph /  4.8km/h 95% 0in /  0.0mm 11 W/m2
08:29 43.7 °F /  6.5 °C 42.4 °F /  5.8 °C 30.5in /  1031.8hPa WNW 4.9mph /  7.9km/h 8mph /  12.9km/h 95% 0in /  0.0mm 14 W/m2
08:34 43.7 °F /  6.5 °C 42.4 °F /  5.8 °C 30.5in /  1031.8hPa WNW 2.9mph /  4.7km/h 4mph /  6.4km/h 95% 0in /  0.0mm 16 W/m2
08:39 43.9 °F /  6.6 °C 42.6 °F /  5.9 °C 30.5in /  1032.2hPa Calm   2mph /  3.2km/h 95% 0in /  0.0mm 16 W/m2
08:44 43.9 °F /  6.6 °C 42.6 °F /  5.9 °C 30.5in /  1032.2hPa WNW 0.9mph /  1.4km/h 4mph /  6.4km/h 95% 0in /  0.0mm 16 W/m2
08:49 43.9 °F /  6.6 °C 42.6 °F /  5.9 °C 30.5in /  1032.2hPa WNW 2mph /  3.2km/h 2mph /  3.2km/h 95% 0in /  0.0mm 16 W/m2
08:54 43.9 °F /  6.6 °C 42.6 °F /  5.9 °C 30.5in /  1032.2hPa WNW 0.9mph /  1.4km/h 2mph /  3.2km/h 95% 0in /  0.0mm 19 W/m2
08:59 43.9 °F /  6.6 °C 42.6 °F /  5.9 °C 30.5in /  1032.2hPa Calm   1mph /  1.6km/h 95% 0in /  0.0mm 21 W/m2
09:04 43.9 °F /  6.6 °C 42.6 °F /  5.9 °C 30.5in /  1032.2hPa Calm     95% 0in /  0.0mm 25 W/m2
09:09 44.1 °F /  6.7 °C 42.8 °F /  6 °C 30.5in /  1032.5hPa Calm     95% 0in /  0.0mm 26 W/m2
09:14 44.1 °F /  6.7 °C 42.8 °F /  6 °C 30.5in /  1032.2hPa Calm     95% 0in /  0.0mm 30 W/m2
Juneau County Weather
Compliments of Weather Underground - 2 mb